Time;durP1;ratioP1;P1;durP2;ratioP2;P2;SDS_P1;SDS_P2;PMS_P1;PMS_P2;Temp;Humidity;BMP_temperature;BMP_pressure;BME280_temperature;BME280_humidity;BME280_pressure;Samples;Min_cycle;Max_cycle;Signal;HPM_P1;HPM_P2
2022/05/07 00:02:06;;;;;;;;;;;14.90;99.10;;;;;;4928015;29;20451;-82
2022/05/07 00:04:37;;;;;;;;;;;14.80;98.80;;;;;;4927581;29;19927;-83
2022/05/07 00:07:06;;;;;;;;;;;15.00;99.50;;;;;;4910651;29;19950;-83
2022/05/07 00:09:36;;;;;;;;;;;14.80;99.50;;;;;;4910255;29;19927;-82
2022/05/07 00:12:06;;;;;;;;;;;14.90;99.50;;;;;;4892915;29;19931;-82
2022/05/07 00:14:34;;;;;;;;;;;14.30;99.80;;;;;;4908136;29;19934;-82
2022/05/07 00:19:49;;;;;;;;;;;13.40;99.80;;;;;;4909087;29;19931;-82
2022/05/07 00:22:19;;;;;;;;;;;14.80;99.90;;;;;;4906463;29;19938;-81
2022/05/07 00:24:49;;;;;;;;;;;14.80;99.90;;;;;;4894672;29;19938;-82
2022/05/07 00:27:18;;;;;;;;;;;15.20;99.90;;;;;;4914290;29;19947;-84
2022/05/07 00:29:49;;;;;;;;;;;14.80;99.90;;;;;;4886731;29;19942;-85
2022/05/07 00:32:32;;;;;;;;;;;15.40;99.90;;;;;;4915746;29;19953;-85
2022/05/07 00:35:28;;;;;;;;;;;14.80;99.90;;;;;;4926820;29;19934;-86
2022/05/07 00:39:25;;;;;;;;;;;14.60;99.90;;;;;;4906336;29;19931;-86
2022/05/07 00:42:51;;;;;;;;;;;15.10;99.90;;;;;;4840720;29;20140;-85
2022/05/07 00:45:46;;;;;;;;;;;14.50;99.90;;;;;;4865684;29;19949;-85
2022/05/07 00:51:50;;;;;;;;;;;14.40;99.90;;;;;;4829025;29;19930;-85
2022/05/07 00:54:43;;;;;;;;;;;14.40;99.90;;;;;;4874847;29;19931;-84
2022/05/07 00:57:19;;;;;;;;;;;14.00;99.90;;;;;;4870684;29;19944;-83
2022/05/07 00:59:52;;;;;;;;;;;14.40;99.90;;;;;;4879631;29;19928;-84
2022/05/07 01:02:32;;;;;;;;;;;14.20;99.90;;;;;;4904657;29;19938;-84
2022/05/07 01:05:06;;;;;;;;;;;14.10;99.90;;;;;;4910929;29;19932;-83
2022/05/07 01:07:35;;;;;;;;;;;14.10;99.90;;;;;;4894975;29;19931;-84
2022/05/07 01:10:10;;;;;;;;;;;14.10;99.90;;;;;;4897514;29;19937;-84
2022/05/07 01:12:39;;;;;;;;;;;13.30;99.90;;;;;;4920972;29;19934;-83
2022/05/07 01:15:10;;;;;;;;;;;15.20;99.90;;;;;;4940283;29;19931;-83
2022/05/07 01:17:40;;;;;;;;;;;14.00;99.90;;;;;;4915382;29;19927;-83
2022/05/07 01:20:14;;;;;;;;;;;13.90;99.90;;;;;;4919608;29;19927;-83
2022/05/07 01:22:45;;;;;;;;;;;13.90;99.90;;;;;;4904820;29;19937;-83
2022/05/07 01:25:19;;;;;;;;;;;13.90;99.90;;;;;;4924987;29;19934;-83
2022/05/07 01:27:59;;;;;;;;;;;14.00;99.90;;;;;;4928962;29;19947;-83
2022/05/07 01:30:30;;;;;;;;;;;14.00;99.90;;;;;;4928229;29;19931;-83
2022/05/07 01:33:00;;;;;;;;;;;13.90;99.90;;;;;;4912674;29;19933;-83
2022/05/07 01:35:29;;;;;;;;;;;13.90;99.90;;;;;;4928535;29;20125;-83
2022/05/07 01:37:57;;;;;;;;;;;13.90;99.90;;;;;;4947970;29;19931;-82
2022/05/07 01:40:32;;;;;;;;;;;13.90;99.90;;;;;;4915211;29;19927;-84
2022/05/07 01:43:01;;;;;;;;;;;13.90;99.90;;;;;;4937828;29;20053;-83
2022/05/07 01:45:32;;;;;;;;;;;14.20;99.90;;;;;;4949414;29;19933;-83
2022/05/07 01:48:11;;;;;;;;;;;13.80;99.90;;;;;;4949339;29;19930;-83
2022/05/07 01:50:53;;;;;;;;;;;14.00;99.90;;;;;;4951750;29;19934;-83
2022/05/07 01:53:36;;;;;;;;;;;14.50;99.90;;;;;;4957316;29;19930;-83
2022/05/07 01:56:06;;;;;;;;;;;13.90;99.90;;;;;;4917319;29;19931;-83
2022/05/07 01:58:41;;;;;;;;;;;13.80;99.90;;;;;;4932616;29;19934;-82
2022/05/07 02:01:12;;;;;;;;;;;13.80;99.90;;;;;;4948887;29;19931;-82
2022/05/07 02:03:41;;;;;;;;;;;13.80;99.90;;;;;;4945843;29;19937;-83
2022/05/07 02:06:12;;;;;;;;;;;13.80;99.90;;;;;;4946093;29;19931;-82
2022/05/07 02:08:41;;;;;;;;;;;13.80;99.90;;;;;;4949954;29;20020;-83
2022/05/07 02:11:17;;;;;;;;;;;13.70;99.90;;;;;;4919488;29;19935;-84
2022/05/07 02:13:45;;;;;;;;;;;12.30;99.90;;;;;;4950181;29;19942;-82
2022/05/07 02:16:14;;;;;;;;;;;13.70;99.90;;;;;;4945945;29;19927;-82
2022/05/07 02:18:43;;;;;;;;;;;13.80;99.90;;;;;;4920913;29;19927;-83
2022/05/07 02:21:13;;;;;;;;;;;13.70;99.90;;;;;;4932871;29;19933;-82
2022/05/07 02:23:41;;;;;;;;;;;13.70;99.90;;;;;;4950903;29;19945;-84
2022/05/07 02:26:10;;;;;;;;;;;13.80;99.90;;;;;;4942389;29;19935;-82
2022/05/07 02:28:39;;;;;;;;;;;13.90;99.90;;;;;;4934128;29;19926;-82
2022/05/07 02:31:10;;;;;;;;;;;13.80;99.90;;;;;;4949441;29;19933;-82
2022/05/07 02:33:38;;;;;;;;;;;13.80;99.90;;;;;;4932647;29;19927;-82
2022/05/07 02:36:12;;;;;;;;;;;13.80;99.90;;;;;;4891859;29;19931;-82
2022/05/07 02:38:40;;;;;;;;;;;13.80;99.90;;;;;;4875601;29;19932;-82
2022/05/07 02:44:02;;;;;;;;;;;13.90;99.90;;;;;;4914043;29;20005;-83
2022/05/07 02:46:30;;;;;;;;;;;13.90;99.90;;;;;;4908856;29;19927;-83
2022/05/07 02:49:05;;;;;;;;;;;13.30;99.90;;;;;;4930382;29;20408;-82
2022/05/07 02:51:32;;;;;;;;;;;13.90;99.90;;;;;;4930339;29;19938;-82
2022/05/07 02:54:00;;;;;;;;;;;13.90;99.90;;;;;;4907052;29;19934;-82
2022/05/07 02:56:31;;;;;;;;;;;13.90;99.90;;;;;;4929002;29;19938;-83
2022/05/07 02:58:59;;;;;;;;;;;13.90;99.90;;;;;;4913276;29;19928;-82
2022/05/07 03:01:27;;;;;;;;;;;13.90;99.90;;;;;;4929779;29;19935;-82
2022/05/07 03:03:57;;;;;;;;;;;13.90;99.90;;;;;;4899193;29;19935;-83
2022/05/07 03:06:26;;;;;;;;;;;12.50;99.90;;;;;;4926837;29;19936;-82
2022/05/07 03:08:53;;;;;;;;;;;13.90;99.90;;;;;;4930116;29;19933;-82
2022/05/07 03:11:21;;;;;;;;;;;13.90;99.90;;;;;;4947102;29;19930;-82
2022/05/07 03:13:49;;;;;;;;;;;13.90;99.90;;;;;;4909265;29;19966;-82
2022/05/07 03:16:17;;;;;;;;;;;13.90;99.90;;;;;;4919381;29;20336;-83
2022/05/07 03:18:46;;;;;;;;;;;13.90;99.90;;;;;;4913202;29;19938;-82
2022/05/07 03:21:15;;;;;;;;;;;13.90;99.90;;;;;;4913186;29;19927;-83
2022/05/07 03:23:47;;;;;;;;;;;14.00;99.90;;;;;;4904171;29;20411;-82
2022/05/07 03:26:17;;;;;;;;;;;14.00;99.90;;;;;;4909591;29;19933;-83
2022/05/07 03:28:45;;;;;;;;;;;14.00;99.90;;;;;;4930481;29;19950;-84
2022/05/07 03:31:19;;;;;;;;;;;14.00;99.90;;;;;;4897786;29;19931;-82
2022/05/07 03:33:48;;;;;;;;;;;14.00;99.90;;;;;;4903862;29;19942;-82
2022/05/07 03:36:21;;;;;;;;;;;14.00;99.90;;;;;;4930300;29;20004;-83
2022/05/07 03:38:51;;;;;;;;;;;14.00;99.90;;;;;;4929664;29;19934;-82
2022/05/07 03:41:21;;;;;;;;;;;13.90;99.90;;;;;;4938899;29;20478;-81
2022/05/07 03:43:49;;;;;;;;;;;14.00;99.90;;;;;;4939059;29;19931;-83
2022/05/07 03:46:17;;;;;;;;;;;14.00;99.90;;;;;;4918741;29;19941;-83
2022/05/07 03:48:52;;;;;;;;;;;14.00;99.90;;;;;;4934252;29;19941;-82
2022/05/07 03:51:21;;;;;;;;;;;13.90;99.90;;;;;;4934846;29;19931;-83
2022/05/07 03:53:52;;;;;;;;;;;14.30;99.90;;;;;;4917512;29;19926;-82
2022/05/07 03:56:23;;;;;;;;;;;13.90;99.90;;;;;;4954251;29;19927;-82
2022/05/07 03:58:53;;;;;;;;;;;13.90;99.90;;;;;;4933772;29;19927;-83
2022/05/07 04:01:45;;;;;;;;;;;13.90;99.90;;;;;;4950549;29;19933;-82
2022/05/07 04:04:13;;;;;;;;;;;14.20;99.90;;;;;;4916355;29;19942;-82
2022/05/07 04:06:43;;;;;;;;;;;13.80;99.90;;;;;;4601329;29;10000296;-83
2022/05/07 04:09:12;;;;;;;;;;;13.90;99.90;;;;;;4944884;29;19927;-82
2022/05/07 04:11:40;;;;;;;;;;;14.30;99.90;;;;;;4922094;29;19933;-82
2022/05/07 04:14:09;;;;;;;;;;;13.90;99.90;;;;;;4921311;29;19927;-82
2022/05/07 04:16:37;;;;;;;;;;;13.80;99.90;;;;;;4927021;29;19930;-83
2022/05/07 04:19:16;;;;;;;;;;;13.90;99.90;;;;;;4945291;29;19934;-82
2022/05/07 04:21:45;;;;;;;;;;;13.80;99.90;;;;;;4944000;29;19942;-82
2022/05/07 04:24:20;;;;;;;;;;;13.80;99.90;;;;;;4945549;29;19927;-83
2022/05/07 04:26:52;;;;;;;;;;;13.40;99.90;;;;;;4928147;29;20392;-82
2022/05/07 04:29:20;;;;;;;;;;;13.70;99.90;;;;;;4912525;29;19931;-82
2022/05/07 04:32:00;;;;;;;;;;;13.70;99.90;;;;;;4927784;29;19938;-83
2022/05/07 04:34:29;;;;;;;;;;;13.70;99.90;;;;;;4922205;29;19927;-83
2022/05/07 04:37:00;;;;;;;;;;;13.70;99.90;;;;;;4946183;29;19927;-82
2022/05/07 04:39:54;;;;;;;;;;;13.70;99.90;;;;;;4944793;29;19934;-82
2022/05/07 04:42:24;;;;;;;;;;;13.70;99.90;;;;;;4927135;29;19934;-82
2022/05/07 04:45:06;;;;;;;;;;;13.70;99.90;;;;;;4926808;29;19931;-82
2022/05/07 04:47:47;;;;;;;;;;;13.70;99.90;;;;;;4926939;29;19958;-83
2022/05/07 04:50:24;;;;;;;;;;;13.70;99.90;;;;;;4899066;29;19927;-82
2022/05/07 04:53:01;;;;;;;;;;;13.70;99.90;;;;;;4928726;29;19931;-82
2022/05/07 04:55:29;;;;;;;;;;;13.80;99.90;;;;;;4933501;29;19926;-82
2022/05/07 04:57:57;;;;;;;;;;;13.80;99.90;;;;;;4928221;29;19927;-83
2022/05/07 05:00:33;;;;;;;;;;;13.80;99.90;;;;;;4928572;29;19927;-82
2022/05/07 05:03:33;;;;;;;;;;;13.90;99.90;;;;;;4943971;29;19941;-83
2022/05/07 05:06:09;;;;;;;;;;;13.90;99.90;;;;;;4911289;29;19947;-82
2022/05/07 05:08:54;;;;;;;;;;;13.90;99.90;;;;;;4911559;29;19933;-82
2022/05/07 05:11:23;;;;;;;;;;;13.90;99.90;;;;;;4929381;29;20412;-85
2022/05/07 05:13:56;;;;;;;;;;;15.10;99.90;;;;;;4945653;29;19996;-84
2022/05/07 05:16:31;;;;;;;;;;;13.40;99.90;;;;;;4940586;29;19938;-84
2022/05/07 05:19:27;;;;;;;;;;;;;;;;;;;;;
2022/05/07 05:22:23;;;;;;;;;;;13.90;99.90;;;;;;4932040;29;19937;-84
2022/05/07 05:24:54;;;;;;;;;;;13.90;99.90;;;;;;4938123;29;19933;-85
2022/05/07 05:27:44;;;;;;;;;;;14.00;99.90;;;;;;4928360;29;19931;-85
2022/05/07 05:30:51;;;;;;;;;;;14.30;99.90;;;;;;4894122;29;19934;-84
2022/05/07 05:34:14;;;;;;;;;;;14.00;99.90;;;;;;4911816;29;19927;-84
2022/05/07 05:36:55;;;;;;;;;;;14.10;99.90;;;;;;4916638;29;19930;-84
2022/05/07 05:39:41;;;;;;;;;;;13.90;99.90;;;;;;4945326;29;19935;-83
2022/05/07 05:42:10;;;;;;;;;;;14.00;99.90;;;;;;4929171;29;19934;-84
2022/05/07 05:44:43;;;;;;;;;;;13.80;99.90;;;;;;4929615;29;19937;-84
2022/05/07 05:47:19;;;;;;;;;;;14.00;99.90;;;;;;4930484;29;19941;-84
2022/05/07 05:49:53;;;;;;;;;;;14.00;99.90;;;;;;4948107;29;19937;-83
2022/05/07 05:52:32;;;;;;;;;;;14.00;99.90;;;;;;4963001;29;19927;-83
2022/05/07 05:55:01;;;;;;;;;;;14.00;99.90;;;;;;4944558;29;19926;-84
2022/05/07 05:57:31;;;;;;;;;;;14.00;99.90;;;;;;4935463;29;19937;-83
2022/05/07 06:00:01;;;;;;;;;;;14.10;99.90;;;;;;4934680;29;19927;-84
2022/05/07 06:02:45;;;;;;;;;;;14.00;99.90;;;;;;4950568;29;19931;-84
2022/05/07 06:05:38;;;;;;;;;;;14.00;99.90;;;;;;4921032;29;19933;-84
2022/05/07 06:08:12;;;;;;;;;;;13.80;99.90;;;;;;4933510;29;20439;-85
2022/05/07 06:10:51;;;;;;;;;;;14.10;99.90;;;;;;4916878;29;19930;-83
2022/05/07 06:14:04;;;;;;;;;;;;;;;;;;;;;
2022/05/07 06:17:07;;;;;;;;;;;14.10;99.90;;;;;;4911496;29;19935;-84
2022/05/07 06:19:49;;;;;;;;;;;14.10;99.90;;;;;;4930696;29;19927;-84
2022/05/07 06:22:22;;;;;;;;;;;14.20;99.90;;;;;;4946765;29;20633;-84
2022/05/07 06:28:01;;;;;;;;;;;13.70;99.90;;;;;;4957002;29;19930;-84
2022/05/07 06:30:38;;;;;;;;;;;14.50;99.90;;;;;;4914903;29;20694;-84
2022/05/07 06:33:34;;;;;;;;;;;13.40;99.90;;;;;;4941898;29;19931;-84
2022/05/07 06:36:52;;;;;;;;;;;;;;;;;;;;;
2022/05/07 06:39:48;;;;;;;;;;;14.50;99.90;;;;;;4920668;29;19938;-84
2022/05/07 06:42:22;;;;;;;;;;;14.50;99.90;;;;;;4933221;29;19935;-83
2022/05/07 06:45:13;;;;;;;;;;;14.60;99.90;;;;;;4945457;29;19937;-84
2022/05/07 06:47:41;;;;;;;;;;;14.60;99.90;;;;;;4903757;29;19931;-83
2022/05/07 06:50:15;;;;;;;;;;;14.60;99.90;;;;;;4947405;29;19934;-83
2022/05/07 06:52:53;;;;;;;;;;;14.70;99.90;;;;;;4917155;29;19926;-84
2022/05/07 06:55:33;;;;;;;;;;;14.80;99.90;;;;;;4948982;29;19931;-83
2022/05/07 06:58:02;;;;;;;;;;;14.90;99.90;;;;;;4944954;29;19927;-82
2022/05/07 07:00:55;;;;;;;;;;;13.60;99.90;;;;;;4943756;29;19927;-84
2022/05/07 07:03:25;;;;;;;;;;;14.90;99.90;;;;;;4944447;29;19942;-83
2022/05/07 07:05:55;;;;;;;;;;;14.50;99.90;;;;;;4946816;29;19931;-82
2022/05/07 07:08:31;;;;;;;;;;;15.00;99.90;;;;;;4924609;29;20308;-83
2022/05/07 07:11:02;;;;;;;;;;;15.10;99.90;;;;;;4919211;29;19930;-83
2022/05/07 07:13:38;;;;;;;;;;;14.00;99.90;;;;;;4932210;29;20629;-84
2022/05/07 07:16:08;;;;;;;;;;;15.10;99.90;;;;;;4929537;29;19930;-84
2022/05/07 07:18:43;;;;;;;;;;;14.40;99.90;;;;;;4943018;29;20450;-83
2022/05/07 07:21:19;;;;;;;;;;;15.40;99.90;;;;;;4902090;29;19937;-83
2022/05/07 07:24:24;;;;;;;;;;;15.60;99.90;;;;;;4943664;29;19937;-84
2022/05/07 07:27:11;;;;;;;;;;;;;;;;;;;;;
2022/05/07 07:29:59;;;;;;;;;;;15.70;99.90;;;;;;4935748;29;20264;-82
2022/05/07 07:32:28;;;;;;;;;;;15.90;99.90;;;;;;4949164;29;19927;-84
2022/05/07 07:34:56;;;;;;;;;;;15.10;99.90;;;;;;4915995;29;19934;-83
2022/05/07 07:37:49;;;;;;;;;;;15.80;99.90;;;;;;4931051;29;19934;-82
2022/05/07 07:40:17;;;;;;;;;;;15.90;99.90;;;;;;4941537;29;20254;-83
2022/05/07 07:42:45;;;;;;;;;;;16.00;99.90;;;;;;4962927;29;19926;-82
2022/05/07 07:48:02;;;;;;;;;;;16.30;99.90;;;;;;4939116;29;19927;-83
2022/05/07 07:50:32;;;;;;;;;;;16.30;99.90;;;;;;4928899;29;20045;-82
2022/05/07 07:53:01;;;;;;;;;;;16.90;99.90;;;;;;4929333;29;19937;-83
2022/05/07 07:55:30;;;;;;;;;;;16.30;99.90;;;;;;4944496;23;19927;-89
2022/05/07 07:58:00;;;;;;;;;;;16.40;99.90;;;;;;4921793;29;19938;-87
2022/05/07 08:00:30;;;;;;;;;;;16.30;99.90;;;;;;4944529;28;19927;-88
2022/05/07 08:03:13;;;;;;;;;;;16.30;99.90;;;;;;4966874;29;19937;-87
2022/05/07 08:06:05;;;;;;;;;;;16.30;99.90;;;;;;4946224;29;19927;-88
2022/05/07 08:12:04;;;;;;;;;;;16.50;99.90;;;;;;4941825;29;20406;-88
2022/05/07 08:14:40;;;;;;;;;;;16.20;99.90;;;;;;4915618;29;19938;-87
2022/05/07 08:17:19;;;;;;;;;;;16.60;99.90;;;;;;4932427;29;19926;-88
2022/05/07 08:19:48;;;;;;;;;;;16.40;99.90;;;;;;4916371;29;19942;-88
2022/05/07 08:22:19;;;;;;;;;;;16.50;99.90;;;;;;4916336;29;19934;-88
2022/05/07 08:24:49;;;;;;;;;;;16.50;99.90;;;;;;4942374;28;19945;-89
2022/05/07 08:27:24;;;;;;;;;;;16.70;99.90;;;;;;4928928;29;19937;-90
2022/05/07 08:30:28;;;;;;;;;;;16.70;99.90;;;;;;4954223;29;20262;-88
2022/05/07 08:33:06;;;;;;;;;;;16.60;99.90;;;;;;4920601;29;19957;-89
2022/05/07 08:35:39;;;;;;;;;;;16.50;99.90;;;;;;4912793;29;20302;-89
2022/05/07 08:38:07;;;;;;;;;;;16.60;99.90;;;;;;4942979;29;19934;-90
2022/05/07 08:40:41;;;;;;;;;;;16.50;99.90;;;;;;4923717;29;19930;-88
2022/05/07 08:43:42;;;;;;;;;;;16.50;99.90;;;;;;4932362;29;19933;-88
2022/05/07 08:46:10;;;;;;;;;;;16.40;99.90;;;;;;4912292;29;19934;-88
2022/05/07 08:48:47;;;;;;;;;;;16.30;99.90;;;;;;4926174;29;19927;-88
2022/05/07 08:51:34;;;;;;;;;;;14.90;99.90;;;;;;4920598;29;19934;-89
2022/05/07 08:54:03;;;;;;;;;;;16.30;99.90;;;;;;4920866;29;20290;-89
2022/05/07 08:56:31;;;;;;;;;;;16.30;99.90;;;;;;4906016;29;19933;-92
2022/05/07 08:58:59;;;;;;;;;;;16.30;99.90;;;;;;4905520;28;19946;-90
2022/05/07 09:01:29;;;;;;;;;;;16.30;99.90;;;;;;4930212;29;19942;-89
2022/05/07 09:04:09;;;;;;;;;;;16.30;99.90;;;;;;4922750;29;19938;-89
2022/05/07 09:06:41;;;;;;;;;;;16.30;99.90;;;;;;4916451;29;19933;-88
2022/05/07 09:09:13;;;;;;;;;;;16.40;99.90;;;;;;4928924;29;20006;-88
2022/05/07 09:11:44;;;;;;;;;;;16.30;99.90;;;;;;4941909;29;19927;-88
2022/05/07 09:14:18;;;;;;;;;;;16.30;99.90;;;;;;4931538;29;19942;-89
2022/05/07 09:16:49;;;;;;;;;;;16.30;99.90;;;;;;4958909;29;19938;-89
2022/05/07 09:19:49;;;;;;;;;;;16.40;99.90;;;;;;4936695;29;19930;-87
2022/05/07 09:25:46;;;;;;;;;;;16.30;99.90;;;;;;4939854;29;19934;-90
2022/05/07 09:28:28;;;;;;;;;;;16.50;99.90;;;;;;4944029;29;19927;-88
2022/05/07 09:30:57;;;;;;;;;;;16.50;99.90;;;;;;4909081;29;19931;-90
2022/05/07 09:33:33;;;;;;;;;;;16.90;99.90;;;;;;4932483;29;19930;-88
2022/05/07 09:36:10;;;;;;;;;;;16.70;99.90;;;;;;4921518;29;19926;-89
2022/05/07 09:38:38;;;;;;;;;;;16.70;99.90;;;;;;4955330;29;19945;-88
2022/05/07 09:41:06;;;;;;;;;;;16.80;99.90;;;;;;4950486;28;19934;-87
2022/05/07 09:43:35;;;;;;;;;;;16.80;99.90;;;;;;4951362;28;19926;-89
2022/05/07 09:46:03;;;;;;;;;;;16.90;99.90;;;;;;4942021;29;19938;-92
2022/05/07 09:48:31;;;;;;;;;;;16.90;99.90;;;;;;4912356;29;20379;-90
2022/05/07 09:51:20;;;;;;;;;;;17.10;99.90;;;;;;4949494;29;19930;-86
2022/05/07 09:59:24;;;;;;;;;;;17.30;99.90;;;;;;4934348;29;19931;-86
2022/05/07 10:02:04;;;;;;;;;;;17.30;99.90;;;;;;4945662;29;19930;-87
2022/05/07 10:04:47;;;;;;;;;;;17.40;99.90;;;;;;4944272;28;19930;-89
2022/05/07 10:07:34;;;;;;;;;;;17.70;99.90;;;;;;4933416;29;19935;-93
2022/05/07 10:10:12;;;;;;;;;;;17.60;99.90;;;;;;4951264;29;19927;-91
2022/05/07 10:12:45;;;;;;;;;;;17.60;99.90;;;;;;4930677;29;19936;-85
2022/05/07 10:15:23;;;;;;;;;;;17.80;99.90;;;;;;4931601;29;19946;-85
2022/05/07 10:17:58;;;;;;;;;;;17.50;99.90;;;;;;4945378;29;19926;-86
2022/05/07 10:20:43;;;;;;;;;;;17.70;99.90;;;;;;4934507;29;19970;-86
2022/05/07 10:23:14;;;;;;;;;;;17.80;99.90;;;;;;4941832;29;19930;-85
2022/05/07 10:26:04;;;;;;;;;;;18.20;99.90;;;;;;4950179;29;19942;-85
2022/05/07 10:28:38;;;;;;;;;;;17.70;99.90;;;;;;4936443;29;19957;-86
2022/05/07 10:31:18;;;;;;;;;;;19.90;99.90;;;;;;4945631;29;20389;-86
2022/05/07 10:33:52;;;;;;;;;;;18.60;99.90;;;;;;4942126;28;19926;-85
2022/05/07 10:36:20;;;;;;;;;;;18.70;99.60;;;;;;4954177;29;19934;-86
2022/05/07 10:39:05;;;;;;;;;;;18.70;98.80;;;;;;4943459;29;19927;-85
2022/05/07 10:41:49;;;;;;;;;;;18.80;99.70;;;;;;4907534;29;19927;-86
2022/05/07 10:44:34;;;;;;;;;;;18.70;99.90;;;;;;4948012;29;19989;-85
2022/05/07 10:47:14;;;;;;;;;;;18.60;99.80;;;;;;4949859;29;19926;-87
2022/05/07 10:49:53;;;;;;;;;;;18.60;99.30;;;;;;4961727;29;20519;-86
2022/05/07 10:52:31;;;;;;;;;;;18.50;98.60;;;;;;4917515;29;19931;-84
2022/05/07 10:55:10;;;;;;;;;;;18.50;98.60;;;;;;4920144;29;19954;-86
2022/05/07 10:57:51;;;;;;;;;;;18.70;98.80;;;;;;4917184;29;19942;-85
2022/05/07 11:00:22;;;;;;;;;;;18.80;99.20;;;;;;4921893;29;19930;-85
2022/05/07 11:03:02;;;;;;;;;;;19.00;97.90;;;;;;4908187;29;19938;-86
2022/05/07 11:05:34;;;;;;;;;;;19.10;98.70;;;;;;4923970;29;19941;-90
2022/05/07 11:08:04;;;;;;;;;;;18.50;97.60;;;;;;4909007;29;19935;-85
2022/05/07 11:10:32;;;;;;;;;;;20.40;98.30;;;;;;4911001;29;19938;-85
2022/05/07 11:13:11;;;;;;;;;;;19.80;97.40;;;;;;4899935;29;19927;-89
2022/05/07 11:15:50;;;;;;;;;;;19.80;97.70;;;;;;4915814;29;19938;-88
2022/05/07 11:18:18;;;;;;;;;;;19.90;97.50;;;;;;4919489;29;19934;-87
2022/05/07 11:21:04;;;;;;;;;;;20.10;97.00;;;;;;4912495;29;19935;-86
2022/05/07 11:23:43;;;;;;;;;;;20.10;96.40;;;;;;4911918;29;20391;-87
2022/05/07 11:26:16;;;;;;;;;;;20.20;96.20;;;;;;4891324;29;20523;-86
2022/05/07 11:28:45;;;;;;;;;;;20.20;96.60;;;;;;4919469;29;19934;-88
2022/05/07 11:31:39;;;;;;;;;;;20.10;96.80;;;;;;4920923;29;19927;-87
2022/05/07 11:34:11;;;;;;;;;;;19.40;97.00;;;;;;4911811;29;19927;-87
2022/05/07 11:36:49;;;;;;;;;;;19.70;97.20;;;;;;4916831;29;19927;-86
2022/05/07 11:39:21;;;;;;;;;;;19.50;97.60;;;;;;4920578;29;19950;-88
2022/05/07 11:41:52;;;;;;;;;;;19.20;98.10;;;;;;4916250;29;19935;-86
2022/05/07 11:47:23;;;;;;;;;;;19.00;98.50;;;;;;4925742;29;19942;-86
2022/05/07 11:50:06;;;;;;;;;;;18.90;98.60;;;;;;4912773;29;19946;-84
2022/05/07 11:52:41;;;;;;;;;;;18.80;98.90;;;;;;4915059;29;19935;-85
2022/05/07 11:55:10;;;;;;;;;;;18.90;99.00;;;;;;4891379;29;19934;-86
2022/05/07 11:57:38;;;;;;;;;;;18.90;99.00;;;;;;4936850;29;20014;-85
2022/05/07 12:00:26;;;;;;;;;;;18.80;99.40;;;;;;4899785;29;19934;-85
2022/05/07 12:03:04;;;;;;;;;;;19.00;98.90;;;;;;4913343;29;19933;-85
2022/05/07 12:05:48;;;;;;;;;;;18.80;98.70;;;;;;4923160;29;19927;-86
2022/05/07 12:08:19;;;;;;;;;;;18.80;98.90;;;;;;4929742;29;19935;-86
2022/05/07 12:10:51;;;;;;;;;;;19.00;98.90;;;;;;4947967;28;19930;-85
2022/05/07 12:13:21;;;;;;;;;;;18.80;99.20;;;;;;4911714;29;19946;-85
2022/05/07 12:30:23;;;;;;;;;;;19.40;99.00;;;;;;4938966;29;19937;-86
2022/05/07 12:32:54;;;;;;;;;;;19.70;98.30;;;;;;4937144;29;19933;-86
2022/05/07 12:35:39;;;;;;;;;;;19.40;98.30;;;;;;4926109;29;19931;-86
2022/05/07 12:38:08;;;;;;;;;;;19.50;97.80;;;;;;4932769;29;19931;-85
2022/05/07 12:40:40;;;;;;;;;;;19.60;97.30;;;;;;4946419;28;19935;-85
2022/05/07 12:43:08;;;;;;;;;;;19.70;97.10;;;;;;4939727;29;19942;-84
2022/05/07 12:45:40;;;;;;;;;;;19.80;97.40;;;;;;4940966;29;19931;-85
2022/05/07 12:48:08;;;;;;;;;;;20.00;96.70;;;;;;4934689;23;19930;-84
2022/05/07 12:50:35;;;;;;;;;;;20.20;96.90;;;;;;4933218;29;20427;-86
2022/05/07 12:53:03;;;;;;;;;;;20.40;96.80;;;;;;4904365;29;19934;-85
2022/05/07 12:55:30;;;;;;;;;;;20.50;96.30;;;;;;4911720;29;20622;-84
2022/05/07 12:57:59;;;;;;;;;;;20.70;96.10;;;;;;4940862;29;19935;-86
2022/05/07 13:00:28;;;;;;;;;;;20.90;96.20;;;;;;4914036;29;19927;-87
2022/05/07 13:03:00;;;;;;;;;;;21.10;95.60;;;;;;4925859;29;19923;-93
2022/05/07 13:05:29;;;;;;;;;;;21.20;95.30;;;;;;4909472;29;19930;-87
2022/05/07 13:08:40;;;;;;;;;;;21.30;95.40;;;;;;4917097;29;19926;-86
2022/05/07 13:11:12;;;;;;;;;;;21.40;95.30;;;;;;4904796;29;19927;-86
2022/05/07 13:13:41;;;;;;;;;;;21.20;95.20;;;;;;4922945;29;19927;-86
2022/05/07 13:16:11;;;;;;;;;;;20.20;92.90;;;;;;4925128;29;19927;-85
2022/05/07 13:18:40;;;;;;;;;;;20.70;93.90;;;;;;4924794;29;19926;-87
2022/05/07 13:21:08;;;;;;;;;;;20.50;94.10;;;;;;4925487;29;19938;-87
2022/05/07 13:23:37;;;;;;;;;;;20.30;94.70;;;;;;4923355;29;19931;-86
2022/05/07 13:26:09;;;;;;;;;;;20.10;95.10;;;;;;4903555;29;19938;-86
2022/05/07 13:28:37;;;;;;;;;;;20.20;95.90;;;;;;4905509;29;20591;-87
2022/05/07 13:31:08;;;;;;;;;;;19.80;95.90;;;;;;4902913;29;19934;-89
2022/05/07 13:33:38;;;;;;;;;;;19.80;96.10;;;;;;4900940;29;19965;-91
2022/05/07 13:36:14;;;;;;;;;;;19.70;96.40;;;;;;4910232;29;19931;-86
2022/05/07 13:38:46;;;;;;;;;;;19.70;96.30;;;;;;4909913;29;19934;-85
2022/05/07 13:41:20;;;;;;;;;;;19.70;96.60;;;;;;4911058;29;19927;-86
2022/05/07 13:43:49;;;;;;;;;;;19.70;96.70;;;;;;4882035;29;19938;-86
2022/05/07 13:46:21;;;;;;;;;;;19.70;96.70;;;;;;4916280;29;19934;-85
2022/05/07 13:48:50;;;;;;;;;;;20.10;97.00;;;;;;4892938;29;19928;-84
2022/05/07 13:51:21;;;;;;;;;;;19.80;96.90;;;;;;4898010;29;19946;-84
2022/05/07 13:53:57;;;;;;;;;;;20.00;96.60;;;;;;4907374;29;20247;-84
2022/05/07 13:56:26;;;;;;;;;;;20.50;96.50;;;;;;4905466;29;19927;-87
2022/05/07 13:59:28;;;;;;;;;;;21.20;95.80;;;;;;4902591;29;19961;-85
2022/05/07 14:02:02;;;;;;;;;;;21.70;95.40;;;;;;4900298;29;19934;-86
2022/05/07 14:04:31;;;;;;;;;;;22.00;94.80;;;;;;4910993;29;20199;-86
2022/05/07 14:07:13;;;;;;;;;;;22.10;94.30;;;;;;4917748;29;19930;-85
2022/05/07 14:10:07;;;;;;;;;;;22.20;94.40;;;;;;4915702;29;20350;-85
2022/05/07 14:12:42;;;;;;;;;;;22.30;94.10;;;;;;4876164;29;19928;-86
2022/05/07 14:15:10;;;;;;;;;;;22.30;93.50;;;;;;4921788;29;20013;-87
2022/05/07 14:17:39;;;;;;;;;;;22.20;93.60;;;;;;4906253;29;19942;-89
2022/05/07 14:20:09;;;;;;;;;;;21.90;93.70;;;;;;4875213;29;19937;-87
2022/05/07 14:22:43;;;;;;;;;;;22.30;94.20;;;;;;4915473;29;19927;-90
2022/05/07 14:25:24;;;;;;;;;;;21.80;94.00;;;;;;4924450;29;19926;-86
2022/05/07 14:28:30;;;;;;;;;;;22.00;94.20;;;;;;4916278;29;19973;-87
2022/05/07 14:31:04;;;;;;;;;;;22.30;94.00;;;;;;4886337;29;19931;-89
2022/05/07 14:34:12;;;;;;;;;;;22.80;93.10;;;;;;4918360;29;20424;-93
2022/05/07 14:37:10;;;;;;;;;;;23.10;93.40;;;;;;4062685;23;26099702;-83
2022/05/07 14:39:42;;;;;;;;;;;23.40;92.70;;;;;;4945392;29;19930;-84
2022/05/07 14:42:30;;;;;;;;;;;23.60;92.30;;;;;;4912138;29;19946;-84
2022/05/07 14:45:02;;;;;;;;;;;23.80;92.60;;;;;;4947818;29;19927;-83
2022/05/07 14:47:43;;;;;;;;;;;23.70;91.80;;;;;;4956717;29;19931;-85
2022/05/07 14:50:25;;;;;;;;;;;;;;;;;;;;;
2022/05/07 14:53:11;;;;;;;;;;;24.00;91.50;;;;;;4947836;29;20090;-85
2022/05/07 14:56:26;;;;;;;;;;;24.40;91.60;;;;;;4948027;29;19943;-85
2022/05/07 14:59:13;;;;;;;;;;;24.00;91.30;;;;;;4935821;29;19941;-85
2022/05/07 15:01:52;;;;;;;;;;;23.50;91.90;;;;;;4935650;29;19934;-84
2022/05/07 15:04:38;;;;;;;;;;;23.00;92.20;;;;;;4932311;29;19930;-84
2022/05/07 15:07:08;;;;;;;;;;;22.40;92.20;;;;;;4935457;29;20130;-83
2022/05/07 15:12:25;;;;;;;;;;;23.20;93.60;;;;;;4933329;29;19937;-83
2022/05/07 15:14:53;;;;;;;;;;;21.30;93.70;;;;;;4948643;29;19933;-83
2022/05/07 15:17:21;;;;;;;;;;;21.00;93.90;;;;;;4934488;29;19937;-83
2022/05/07 15:19:52;;;;;;;;;;;21.10;94.00;;;;;;4935393;29;19945;-83
2022/05/07 15:22:38;;;;;;;;;;;20.40;93.30;;;;;;4959119;28;19931;-82
2022/05/07 15:25:12;;;;;;;;;;;20.80;93.80;;;;;;4945518;29;19910;-83
2022/05/07 15:28:09;;;;;;;;;;;20.90;93.90;;;;;;4949233;29;19933;-81
2022/05/07 15:30:37;;;;;;;;;;;20.50;94.20;;;;;;4934232;29;19930;-82
2022/05/07 15:38:46;;;;;;;;;;;20.50;95.40;;;;;;4958086;29;19930;-79
2022/05/07 15:41:16;;;;;;;;;;;20.40;95.20;;;;;;4962533;28;19937;-80
2022/05/07 15:43:52;;;;;;;;;;;20.60;95.20;;;;;;4957732;28;19942;-81
2022/05/07 15:46:35;;;;;;;;;;;20.90;94.70;;;;;;4960644;29;19933;-80
2022/05/07 15:49:06;;;;;;;;;;;20.70;94.30;;;;;;4922627;29;19938;-83
2022/05/07 15:51:35;;;;;;;;;;;20.90;94.40;;;;;;4958706;28;19927;-80
2022/05/07 15:54:03;;;;;;;;;;;21.80;95.00;;;;;;4947285;29;19964;-80
2022/05/07 15:56:32;;;;;;;;;;;20.80;94.90;;;;;;4960605;28;19934;-81
2022/05/07 15:59:03;;;;;;;;;;;21.00;94.80;;;;;;4947350;29;19930;-81
2022/05/07 16:01:31;;;;;;;;;;;21.00;95.00;;;;;;4961126;29;19935;-80
2022/05/07 16:04:01;;;;;;;;;;;21.20;95.20;;;;;;4941255;29;19927;-80
2022/05/07 16:06:29;;;;;;;;;;;21.60;94.70;;;;;;4928945;29;19926;-80